Time;durP1;ratioP1;P1;durP2;ratioP2;P2;SDS_P1;SDS_P2;PMS_P1;PMS_P2;Temp;Humidity;BMP_temperature;BMP_pressure;BME280_temperature;BME280_humidity;BME280_pressure;Samples;Min_cycle;Max_cycle;Signal;HPM_P1;HPM_P2
2022/09/07 00:00:47;;;;;;;3.55;1.30;;;21.90;99.90;;;;;;5003743;28;20033;-77
2022/09/07 00:03:13;;;;;;;5.72;1.17;;;22.00;99.90;;;;;;5013711;28;20026;-79
2022/09/07 00:05:43;;;;;;;6.32;1.15;;;21.90;99.90;;;;;;4997097;28;20434;-77
2022/09/07 00:08:09;;;;;;;2.92;0.90;;;21.90;99.90;;;;;;4999891;28;20026;-77
2022/09/07 00:10:35;;;;;;;2.55;0.95;;;21.90;99.90;;;;;;5006084;28;20374;-77
2022/09/07 00:13:01;;;;;;;2.38;0.88;;;21.90;99.90;;;;;;5005157;28;20034;-78
2022/09/07 00:15:27;;;;;;;1.38;0.77;;;21.90;99.90;;;;;;4996820;28;20050;-72
2022/09/07 00:17:52;;;;;;;4.75;0.93;;;21.90;99.90;;;;;;5007910;28;20058;-76
2022/09/07 00:20:18;;;;;;;3.17;1.10;;;21.90;99.90;;;;;;4998500;28;20439;-73
2022/09/07 00:22:45;;;;;;;2.08;0.90;;;21.90;99.90;;;;;;5011126;28;20057;-74
2022/09/07 00:25:11;;;;;;;2.78;1.10;;;21.80;99.90;;;;;;4999284;28;20433;-73
2022/09/07 00:27:37;;;;;;;6.03;1.23;;;21.80;99.90;;;;;;5007886;28;20028;-75
2022/09/07 00:30:04;;;;;;;2.70;1.13;;;21.80;99.90;;;;;;4996639;28;20018;-73
2022/09/07 00:32:30;;;;;;;3.90;1.10;;;21.80;99.90;;;;;;5004271;28;20053;-74
2022/09/07 00:34:56;;;;;;;2.92;1.65;;;21.70;99.90;;;;;;5003533;28;20523;-73
2022/09/07 00:37:21;;;;;;;3.25;1.20;;;21.70;99.90;;;;;;4996941;28;20026;-74
2022/09/07 00:39:48;;;;;;;5.32;1.02;;;21.70;99.90;;;;;;5008394;28;20073;-74
2022/09/07 00:42:17;;;;;;;3.35;1.15;;;21.60;99.90;;;;;;5011839;28;20083;-72
2022/09/07 00:44:42;;;;;;;2.10;1.00;;;21.60;99.90;;;;;;5011594;28;20044;-73
2022/09/07 00:47:23;;;;;;;5.28;1.60;;;21.60;99.90;;;;;;5013097;28;20097;-72
2022/09/07 00:49:56;;;;;;;6.83;1.03;;;21.60;99.90;;;;;;5011601;28;20061;-72
2022/09/07 00:52:23;;;;;;;2.28;1.27;;;21.60;99.90;;;;;;5012230;28;20563;-72
2022/09/07 00:54:58;;;;;;;2.88;1.20;;;21.60;99.90;;;;;;5012711;28;20022;-72
2022/09/07 00:57:26;;;;;;;4.15;1.33;;;21.60;99.90;;;;;;5011976;28;20383;-72
2022/09/07 00:59:54;;;;;;;5.75;1.35;;;21.50;99.90;;;;;;5011458;28;20030;-72
2022/09/07 01:02:20;;;;;;;3.90;1.52;;;21.50;99.90;;;;;;5013372;28;20026;-72
2022/09/07 01:04:49;;;;;;;2.47;1.27;;;21.60;99.90;;;;;;5012608;28;20096;-72
2022/09/07 01:07:14;;;;;;;6.43;1.73;;;21.60;99.90;;;;;;5013157;28;20025;-72
2022/09/07 01:09:41;;;;;;;8.02;1.70;;;21.60;99.90;;;;;;5012548;28;20029;-72
2022/09/07 01:12:08;;;;;;;6.40;1.17;;;21.60;99.90;;;;;;5013074;28;20029;-72
2022/09/07 01:14:39;;;;;;;3.42;1.15;;;21.60;99.90;;;;;;5011526;28;20125;-71
2022/09/07 01:17:14;;;;;;;1.70;0.93;;;21.60;99.90;;;;;;5011473;28;20066;-72
2022/09/07 01:20:17;;;;;;;5.68;0.90;;;21.60;99.90;;;;;;5012412;28;20026;-72
2022/09/07 01:23:06;;;;;;;3.85;1.00;;;21.60;99.90;;;;;;5012237;28;20100;-72
2022/09/07 01:26:00;;;;;;;3.50;1.00;;;21.60;99.90;;;;;;5011480;28;20030;-71
2022/09/07 01:28:25;;;;;;;2.05;0.98;;;21.60;99.90;;;;;;5012815;28;20116;-71
2022/09/07 01:30:57;;;;;;;2.03;0.93;;;21.70;99.90;;;;;;5011955;28;20259;-71
2022/09/07 01:33:51;;;;;;;5.28;1.08;;;21.50;99.90;;;;;;5012853;28;20026;-72
2022/09/07 01:36:26;;;;;;;3.35;1.10;;;21.50;99.90;;;;;;5011559;28;20026;-72
2022/09/07 01:39:03;;;;;;;4.85;1.10;;;21.60;99.90;;;;;;5012245;28;20026;-72
2022/09/07 01:41:32;;;;;;;2.70;0.98;;;21.60;99.90;;;;;;5012969;28;20069;-71
2022/09/07 01:44:09;;;;;;;2.53;0.93;;;21.60;99.90;;;;;;5012179;28;20478;-72
2022/09/07 01:46:45;;;;;;;2.05;0.70;;;21.60;99.90;;;;;;5014004;28;20034;-71
2022/09/07 01:49:23;;;;;;;2.95;0.88;;;21.60;99.90;;;;;;5015084;28;20026;-71
2022/09/07 01:51:55;;;;;;;1.83;1.00;;;21.60;99.90;;;;;;5014534;28;20030;-72
2022/09/07 01:54:34;;;;;;;3.72;0.98;;;21.60;99.90;;;;;;5016610;28;20117;-72
2022/09/07 01:57:09;;;;;;;5.03;1.00;;;21.60;99.90;;;;;;5014734;28;20270;-72
2022/09/07 01:59:39;;;;;;;2.55;0.70;;;21.60;99.90;;;;;;5015255;28;20121;-71
2022/09/07 02:02:11;;;;;;;4.72;1.02;;;21.60;99.90;;;;;;5015472;28;20112;-72
2022/09/07 02:04:54;;;;;;;1.70;0.70;;;21.60;99.90;;;;;;5016615;28;20030;-72
2022/09/07 02:07:44;;;;;;;3.65;0.90;;;21.70;99.90;;;;;;5016659;28;20083;-72
2022/09/07 02:10:12;;;;;;;2.08;0.75;;;21.60;99.90;;;;;;5015215;28;20401;-72
2022/09/07 02:12:41;;;;;;;5.30;0.90;;;21.60;99.90;;;;;;5016272;28;20109;-72
2022/09/07 02:15:15;;;;;;;3.20;1.08;;;21.60;99.90;;;;;;5014554;28;20033;-72
2022/09/07 02:18:08;;;;;;;4.03;0.90;;;21.60;99.90;;;;;;5015887;28;20375;-72
2022/09/07 02:20:37;;;;;;;1.42;0.88;;;21.50;99.90;;;;;;5012539;28;20482;-72
2022/09/07 02:23:14;;;;;;;3.30;1.13;;;21.50;99.90;;;;;;5014109;28;20471;-71
2022/09/07 02:25:44;;;;;;;3.92;1.23;;;21.40;99.90;;;;;;5015876;28;20037;-72
2022/09/07 02:28:15;;;;;;;3.50;0.90;;;21.40;99.90;;;;;;5014937;28;20037;-71
2022/09/07 02:30:41;;;;;;;2.20;1.10;;;21.40;99.90;;;;;;5016204;28;20044;-72
2022/09/07 02:33:07;;;;;;;1.60;0.90;;;21.40;99.90;;;;;;5015563;28;20026;-71
2022/09/07 02:35:33;;;;;;;2.50;0.95;;;21.40;99.90;;;;;;5015772;28;20033;-71
2022/09/07 02:38:03;;;;;;;3.45;1.15;;;21.40;99.90;;;;;;5014967;28;20030;-73
2022/09/07 02:40:29;;;;;;;2.63;0.93;;;21.30;99.90;;;;;;5015341;28;20529;-72
2022/09/07 02:42:57;;;;;;;3.25;1.13;;;21.20;99.90;;;;;;5013873;28;20026;-72
2022/09/07 02:45:22;;;;;;;3.05;1.02;;;21.20;99.90;;;;;;5014245;28;20084;-72
2022/09/07 02:47:48;;;;;;;2.63;1.25;;;21.20;99.90;;;;;;5015022;28;20467;-72
2022/09/07 02:50:33;;;;;;;4.57;1.15;;;21.20;99.90;;;;;;5014213;28;20081;-72
2022/09/07 02:53:23;;;;;;;3.75;1.20;;;21.10;99.90;;;;;;5014968;28;20113;-72
2022/09/07 02:56:15;;;;;;;3.67;0.98;;;21.00;99.90;;;;;;5013640;28;20430;-71
2022/09/07 02:59:06;;;;;;;4.28;1.35;;;21.00;99.90;;;;;;4990464;28;20403;-72
2022/09/07 03:02:03;;;;;;;5.27;1.17;;;21.00;99.90;;;;;;5014070;28;20064;-72
2022/09/07 03:04:42;;;;;;;3.60;1.30;;;20.90;99.90;;;;;;5015640;28;20493;-72
2022/09/07 03:07:27;;;;;;;6.72;1.20;;;20.90;99.90;;;;;;5014415;28;20037;-72
2022/09/07 03:09:56;;;;;;;5.57;1.25;;;20.90;99.90;;;;;;5014457;28;20033;-72
2022/09/07 03:12:22;;;;;;;2.15;1.35;;;20.80;99.90;;;;;;5013852;28;20034;-72
2022/09/07 03:14:48;;;;;;;2.40;1.38;;;20.80;99.90;;;;;;5013175;28;20116;-72
2022/09/07 03:17:14;;;;;;;6.03;1.30;;;20.70;99.90;;;;;;5013660;28;20123;-72
2022/09/07 03:19:40;;;;;;;2.75;1.73;;;20.70;99.90;;;;;;5013619;28;20054;-72
2022/09/07 03:22:06;;;;;;;2.95;1.20;;;20.70;99.90;;;;;;5014391;28;20479;-72
2022/09/07 03:24:32;;;;;;;3.30;1.27;;;20.70;99.90;;;;;;5013563;28;20037;-71
2022/09/07 03:26:58;;;;;;;6.00;1.13;;;20.70;99.90;;;;;;5012889;28;20116;-71
2022/09/07 03:29:24;;;;;;;2.88;1.13;;;20.70;99.90;;;;;;5014727;28;20455;-72
2022/09/07 03:31:49;;;;;;;3.00;1.45;;;20.70;99.90;;;;;;5013029;28;20029;-71
2022/09/07 03:34:16;;;;;;;2.95;1.48;;;20.70;99.90;;;;;;5014554;28;20364;-71
2022/09/07 03:36:42;;;;;;;4.60;1.45;;;20.70;99.90;;;;;;5014698;28;20061;-71
2022/09/07 03:39:10;;;;;;;6.40;1.50;;;20.70;99.90;;;;;;5014007;28;20483;-72
2022/09/07 03:41:36;;;;;;;5.78;2.08;;;20.70;99.90;;;;;;5013297;28;20026;-71
2022/09/07 03:44:03;;;;;;;5.88;1.73;;;20.60;99.90;;;;;;5013787;28;20451;-71
2022/09/07 03:46:29;;;;;;;7.07;1.70;;;20.60;99.90;;;;;;5014265;28;20501;-71
2022/09/07 03:48:55;;;;;;;6.82;1.80;;;20.50;99.90;;;;;;5012557;28;20038;-71
2022/09/07 03:51:21;;;;;;;6.50;1.90;;;20.50;99.90;;;;;;5014019;28;20029;-71
2022/09/07 03:53:47;;;;;;;2.53;1.20;;;20.50;99.90;;;;;;5012661;28;20356;-75
2022/09/07 03:56:20;;;;;;;4.03;1.50;;;20.60;99.90;;;;;;5013227;28;20372;-71
2022/09/07 03:58:47;;;;;;;6.25;1.50;;;20.60;99.90;;;;;;5012939;28;20057;-73
2022/09/07 04:01:15;;;;;;;7.70;1.88;;;20.60;99.90;;;;;;5014120;28;20034;-73
2022/09/07 04:03:42;;;;;;;4.30;1.33;;;20.60;99.90;;;;;;5014090;28;20029;-72
2022/09/07 04:06:08;;;;;;;5.03;1.40;;;20.60;99.90;;;;;;5013596;28;20346;-74
2022/09/07 04:08:35;;;;;;;4.15;1.30;;;20.60;99.90;;;;;;5012746;28;20467;-72
2022/09/07 04:11:04;;;;;;;3.50;1.20;;;20.60;99.90;;;;;;5012077;28;20109;-73
2022/09/07 04:13:30;;;;;;;4.85;1.40;;;20.60;99.90;;;;;;5012854;28;20058;-73
2022/09/07 04:15:56;;;;;;;3.55;1.30;;;20.60;99.90;;;;;;5013351;28;20053;-73
2022/09/07 04:18:23;;;;;;;4.63;1.52;;;20.60;99.90;;;;;;5013807;28;20030;-73
2022/09/07 04:20:49;;;;;;;7.80;2.05;;;20.50;99.90;;;;;;5011942;28;20068;-78
2022/09/07 04:23:16;;;;;;;3.88;1.83;;;20.50;99.90;;;;;;5012473;28;20037;-73
2022/09/07 04:25:49;;;;;;;3.67;1.55;;;20.60;99.90;;;;;;5013644;28;20038;-73
2022/09/07 04:28:17;;;;;;;4.63;1.77;;;20.60;99.90;;;;;;5013691;28;20030;-73
2022/09/07 04:30:43;;;;;;;7.20;2.00;;;20.60;99.90;;;;;;5013583;28;20034;-73
2022/09/07 04:33:08;;;;;;;5.53;1.20;;;20.60;99.90;;;;;;5011927;28;20286;-73
2022/09/07 04:35:41;;;;;;;4.20;1.50;;;20.50;99.90;;;;;;5013597;28;20034;-73
2022/09/07 04:38:11;;;;;;;4.22;1.50;;;20.50;99.90;;;;;;5013048;28;20025;-73
2022/09/07 04:40:36;;;;;;;4.65;1.30;;;20.50;99.90;;;;;;5013532;28;20029;-73
2022/09/07 04:43:04;;;;;;;5.25;1.30;;;20.60;99.90;;;;;;5013004;28;20033;-73
2022/09/07 04:45:30;;;;;;;5.53;1.25;;;20.60;99.90;;;;;;5011732;28;20030;-72
2022/09/07 04:47:55;;;;;;;5.57;1.88;;;20.60;99.90;;;;;;5012914;28;20045;-73
2022/09/07 04:50:23;;;;;;;5.22;1.58;;;20.50;99.90;;;;;;5012043;28;20029;-73
2022/09/07 04:52:49;;;;;;;4.55;1.70;;;20.50;99.90;;;;;;5011910;28;20057;-73
2022/09/07 04:55:15;;;;;;;3.75;1.50;;;20.50;99.90;;;;;;5012775;28;20438;-73
2022/09/07 04:57:41;;;;;;;5.53;1.60;;;20.50;99.90;;;;;;5013234;28;20557;-73
2022/09/07 05:00:08;;;;;;;5.22;1.40;;;20.50;99.90;;;;;;5011571;28;20030;-73
2022/09/07 05:02:33;;;;;;;3.17;1.40;;;20.40;99.90;;;;;;5013128;28;20072;-73
2022/09/07 05:04:59;;;;;;;3.70;1.50;;;20.40;99.90;;;;;;5012504;28;20033;-72
2022/09/07 05:07:25;;;;;;;4.65;1.95;;;20.30;99.90;;;;;;5012824;28;20040;-71
2022/09/07 05:09:51;;;;;;;3.05;1.25;;;20.40;99.90;;;;;;5013055;28;20080;-71
2022/09/07 05:12:17;;;;;;;5.05;1.63;;;20.40;99.90;;;;;;5011774;28;20030;-71
2022/09/07 05:14:42;;;;;;;3.75;1.50;;;20.40;99.90;;;;;;5012736;28;20044;-74
2022/09/07 05:17:08;;;;;;;5.10;1.60;;;20.40;99.90;;;;;;5010984;28;20483;-74
2022/09/07 05:19:34;;;;;;;5.53;1.70;;;20.30;99.90;;;;;;5011595;28;20486;-71
2022/09/07 05:21:59;;;;;;;3.67;1.83;;;20.30;99.90;;;;;;5012105;28;20034;-72
2022/09/07 05:24:25;;;;;;;4.78;1.95;;;20.30;99.90;;;;;;5011809;28;20030;-71
2022/09/07 05:26:52;;;;;;;4.80;1.52;;;20.30;99.90;;;;;;5012823;28;20030;-73
2022/09/07 05:29:19;;;;;;;4.20;1.10;;;20.40;99.90;;;;;;5011516;28;20034;-73
2022/09/07 05:31:44;;;;;;;4.05;1.10;;;20.40;99.90;;;;;;5011682;28;20095;-73
2022/09/07 05:34:10;;;;;;;7.78;1.13;;;20.40;99.90;;;;;;5011068;28;20511;-73
2022/09/07 05:36:36;;;;;;;10.25;1.65;;;20.40;99.90;;;;;;5011535;28;20030;-73
2022/09/07 05:39:04;;;;;;;10.18;2.13;;;20.40;99.90;;;;;;5011094;28;20022;-73
2022/09/07 05:41:30;;;;;;;4.57;1.60;;;20.30;99.90;;;;;;5012727;28;20113;-73
2022/09/07 05:43:56;;;;;;;5.95;1.65;;;20.30;99.90;;;;;;5012249;28;20026;-74
2022/09/07 05:46:22;;;;;;;4.35;1.48;;;20.30;99.90;;;;;;5012896;28;20514;-73
2022/09/07 05:48:48;;;;;;;8.02;1.70;;;20.40;99.90;;;;;;5011538;28;20080;-73
2022/09/07 05:51:15;;;;;;;5.15;2.00;;;20.40;99.90;;;;;;5010863;28;20478;-73
2022/09/07 05:53:43;;;;;;;9.85;2.17;;;20.40;99.90;;;;;;5012652;28;20026;-73
2022/09/07 05:56:09;;;;;;;6.43;2.08;;;20.40;99.90;;;;;;5010855;28;20430;-73
2022/09/07 05:58:35;;;;;;;3.72;1.30;;;20.30;99.90;;;;;;5011391;28;20113;-73
2022/09/07 06:01:07;;;;;;;3.85;1.50;;;20.30;99.90;;;;;;5010346;28;20084;-74
2022/09/07 06:03:33;;;;;;;3.05;1.30;;;20.30;99.90;;;;;;5011496;28;20061;-73
2022/09/07 06:06:11;;;;;;;4.57;1.30;;;20.30;99.90;;;;;;5011848;28;20029;-73
2022/09/07 06:08:39;;;;;;;3.35;1.80;;;20.40;99.90;;;;;;5011260;28;20079;-73
2022/09/07 06:11:13;;;;;;;7.15;1.88;;;20.40;99.90;;;;;;5010691;28;20364;-74
2022/09/07 06:13:40;;;;;;;6.50;1.70;;;20.30;99.90;;;;;;5012496;28;20456;-71
2022/09/07 06:16:07;;;;;;;5.60;1.80;;;20.30;99.90;;;;;;5011625;28;20053;-74
2022/09/07 06:18:35;;;;;;;5.50;1.40;;;20.40;99.90;;;;;;5012414;28;20105;-74
2022/09/07 06:21:05;;;;;;;5.32;2.00;;;20.40;99.90;;;;;;5011597;28;20467;-73
2022/09/07 06:23:32;;;;;;;4.32;1.35;;;20.40;99.90;;;;;;5011114;28;20026;-74
2022/09/07 06:25:58;;;;;;;7.38;1.52;;;20.40;99.90;;;;;;5011763;28;20112;-74
2022/09/07 06:28:43;;;;;;;3.05;1.52;;;20.40;99.90;;;;;;5011181;28;20379;-73
2022/09/07 06:31:14;;;;;;;3.88;1.48;;;20.40;99.90;;;;;;5011687;28;20053;-73
2022/09/07 06:33:43;;;;;;;5.43;1.80;;;20.50;99.90;;;;;;5012390;28;20077;-73
2022/09/07 06:36:11;;;;;;;8.55;1.80;;;20.40;99.90;;;;;;5013894;28;20088;-73
2022/09/07 06:38:38;;;;;;;10.70;2.10;;;20.50;99.90;;;;;;5015944;28;20032;-73
2022/09/07 06:41:06;;;;;;;8.85;1.92;;;20.60;99.90;;;;;;5015226;28;20030;-73
2022/09/07 06:43:32;;;;;;;6.95;1.85;;;20.60;99.90;;;;;;5014367;28;20032;-73
2022/09/07 06:45:57;;;;;;;6.85;1.60;;;20.60;99.90;;;;;;5014781;28;20117;-78
2022/09/07 06:48:24;;;;;;;5.13;1.73;;;20.70;99.90;;;;;;5014223;28;20037;-74
2022/09/07 06:51:02;;;;;;;4.65;1.45;;;20.70;99.90;;;;;;5015522;28;20060;-73
2022/09/07 06:53:33;;;;;;;6.38;1.70;;;20.80;99.90;;;;;;5015808;28;20029;-73
2022/09/07 06:55:59;;;;;;;4.13;1.48;;;20.80;99.90;;;;;;5014901;28;20034;-73
2022/09/07 06:58:26;;;;;;;4.22;1.45;;;20.90;99.90;;;;;;5015309;28;20026;-73
2022/09/07 07:00:52;;;;;;;5.45;1.30;;;21.00;99.90;;;;;;5013983;28;20049;-73
2022/09/07 07:03:18;;;;;;;5.28;1.48;;;21.00;99.90;;;;;;5013367;28;20041;-73
2022/09/07 07:05:52;;;;;;;5.90;1.30;;;21.10;99.90;;;;;;5013845;28;20026;-73
2022/09/07 07:08:19;;;;;;;2.85;1.17;;;21.10;99.90;;;;;;5014739;28;20511;-73
2022/09/07 07:10:44;;;;;;;7.00;1.65;;;21.20;99.90;;;;;;5015489;28;20038;-73
2022/09/07 07:13:10;;;;;;;2.35;1.20;;;21.20;99.90;;;;;;5012975;28;20029;-73
2022/09/07 07:15:36;;;;;;;4.72;1.20;;;21.30;99.90;;;;;;5014866;28;20049;-73
2022/09/07 07:18:01;;;;;;;5.97;1.30;;;21.30;99.90;;;;;;5014454;28;20493;-74
2022/09/07 07:20:27;;;;;;;3.17;1.10;;;21.40;99.90;;;;;;5013750;28;20026;-73
2022/09/07 07:22:53;;;;;;;4.15;1.30;;;21.40;99.90;;;;;;5013581;28;20032;-73
2022/09/07 07:25:19;;;;;;;4.63;1.40;;;21.50;99.90;;;;;;5013906;28;20365;-73
2022/09/07 07:27:45;;;;;;;2.30;1.30;;;21.50;99.90;;;;;;5014763;28;20065;-73
2022/09/07 07:30:15;;;;;;;6.80;1.33;;;21.60;99.90;;;;;;5012933;28;20022;-73
2022/09/07 07:32:42;;;;;;;4.03;1.85;;;21.60;99.90;;;;;;5013449;28;20022;-73
2022/09/07 07:35:08;;;;;;;8.10;1.83;;;21.70;99.90;;;;;;5012873;28;20033;-73
2022/09/07 07:37:38;;;;;;;6.63;1.70;;;21.70;99.90;;;;;;5014625;28;20363;-73
2022/09/07 07:40:06;;;;;;;3.63;1.50;;;21.80;99.90;;;;;;5013925;28;20087;-73
2022/09/07 07:42:32;;;;;;;6.32;1.80;;;21.80;99.90;;;;;;5013282;28;20026;-73
2022/09/07 07:44:58;;;;;;;5.13;1.63;;;21.90;99.90;;;;;;5012685;28;20050;-72
2022/09/07 07:47:25;;;;;;;5.90;1.40;;;22.00;99.90;;;;;;5014044;28;20030;-73
2022/09/07 07:49:51;;;;;;;5.53;1.40;;;22.00;99.90;;;;;;5013076;28;20120;-73
2022/09/07 07:52:17;;;;;;;11.75;1.55;;;22.00;99.90;;;;;;5013818;28;20026;-73
2022/09/07 07:54:44;;;;;;;7.82;1.65;;;22.10;99.90;;;;;;5014295;28;20426;-73
2022/09/07 07:57:10;;;;;;;7.13;1.55;;;22.10;99.90;;;;;;5013771;28;20026;-74
2022/09/07 07:59:36;;;;;;;7.47;1.85;;;22.10;99.90;;;;;;5014262;28;20026;-73
2022/09/07 08:02:03;;;;;;;7.80;1.83;;;22.20;99.90;;;;;;5012160;28;20387;-77
2022/09/07 08:04:38;;;;;;;3.38;1.33;;;22.20;99.90;;;;;;5012443;28;20030;-73
2022/09/07 08:07:04;;;;;;;2.65;1.67;;;22.20;99.90;;;;;;5012207;28;20475;-74
2022/09/07 08:09:29;;;;;;;4.43;1.67;;;22.20;99.90;;;;;;5012631;28;20112;-73
2022/09/07 08:11:55;;;;;;;6.30;2.03;;;22.30;99.90;;;;;;5013640;28;20482;-74
2022/09/07 08:14:20;;;;;;;8.00;1.70;;;22.40;99.90;;;;;;5011578;28;20386;-73
2022/09/07 08:16:46;;;;;;;7.43;1.60;;;22.40;99.90;;;;;;5013275;28;20057;-73
2022/09/07 08:19:12;;;;;;;5.80;1.38;;;22.50;99.90;;;;;;5013268;28;20208;-74
2022/09/07 08:21:37;;;;;;;6.90;1.30;;;22.50;99.90;;;;;;5013594;28;20022;-74
2022/09/07 08:24:03;;;;;;;9.07;1.60;;;22.50;99.90;;;;;;5013030;28;20032;-78
2022/09/07 08:26:29;;;;;;;3.15;1.38;;;22.60;99.90;;;;;;5013060;28;20079;-73
2022/09/07 08:28:55;;;;;;;6.57;1.75;;;22.60;99.90;;;;;;5013557;28;20113;-73
2022/09/07 08:31:22;;;;;;;8.75;1.40;;;22.60;99.90;;;;;;5011042;28;20527;-73
2022/09/07 08:33:47;;;;;;;3.67;1.50;;;22.60;99.90;;;;;;5011643;28;20422;-74
2022/09/07 08:36:16;;;;;;;6.57;1.52;;;22.70;99.90;;;;;;5012545;28;20056;-73
2022/09/07 08:38:42;;;;;;;3.30;1.20;;;22.70;99.90;;;;;;5013251;28;20025;-73
2022/09/07 08:41:28;;;;;;;5.80;1.52;;;22.70;99.90;;;;;;5011262;28;20420;-75
2022/09/07 08:43:58;;;;;;;2.67;0.95;;;22.80;99.90;;;;;;4992530;28;20468;-73
2022/09/07 08:46:31;;;;;;;5.47;1.42;;;22.80;99.90;;;;;;5007387;28;20065;-73
2022/09/07 08:48:59;;;;;;;6.15;1.55;;;22.90;99.90;;;;;;5011427;28;20406;-74
2022/09/07 08:51:28;;;;;;;6.63;1.55;;;23.00;99.90;;;;;;5012418;28;20018;-73
2022/09/07 08:53:54;;;;;;;6.30;1.52;;;23.00;99.90;;;;;;5011272;28;20386;-73
2022/09/07 08:56:36;;;;;;;4.18;1.45;;;23.00;99.90;;;;;;5010749;28;20101;-73
2022/09/07 08:59:14;;;;;;;3.17;1.40;;;23.00;99.90;;;;;;5009385;28;20077;-73
2022/09/07 09:01:42;;;;;;;3.13;1.40;;;23.00;99.90;;;;;;5011262;28;20519;-73
2022/09/07 09:04:25;;;;;;;5.95;1.17;;;23.00;99.90;;;;;;5010761;28;20048;-75
2022/09/07 09:07:19;;;;;;;5.40;1.73;;;23.10;99.90;;;;;;5007041;28;20477;-73
2022/09/07 09:10:03;;;;;;;10.10;1.55;;;23.10;99.90;;;;;;5011113;28;20026;-74
2022/09/07 09:12:43;;;;;;;2.85;1.40;;;23.20;99.90;;;;;;5011554;28;20037;-73
2022/09/07 09:15:21;;;;;;;4.28;1.60;;;23.20;99.90;;;;;;5008328;28;20032;-73
2022/09/07 09:18:13;;;;;;;7.50;1.77;;;23.30;99.90;;;;;;5011879;28;20075;-73
2022/09/07 09:20:49;;;;;;;5.68;1.63;;;23.30;99.90;;;;;;5011564;28;20030;-73
2022/09/07 09:23:17;;;;;;;3.95;1.42;;;23.30;99.90;;;;;;5012466;28;20030;-73
2022/09/07 09:25:54;;;;;;;6.70;1.52;;;23.40;99.90;;;;;;5011498;28;20038;-73
2022/09/07 09:28:20;;;;;;;5.28;1.30;;;23.50;99.90;;;;;;5012345;28;20022;-73
2022/09/07 09:30:48;;;;;;;6.28;1.80;;;23.40;99.90;;;;;;5010994;28;20087;-74
2022/09/07 09:33:17;;;;;;;3.50;1.60;;;23.50;99.90;;;;;;5012107;28;20022;-73
2022/09/07 09:35:45;;;;;;;4.60;1.60;;;23.50;99.90;;;;;;5011548;28;20029;-73
2022/09/07 09:38:34;;;;;;;5.97;1.23;;;23.60;99.90;;;;;;5012282;28;20032;-73
2022/09/07 09:41:08;;;;;;;5.55;1.60;;;23.60;99.90;;;;;;5002413;28;20038;-74
2022/09/07 09:43:39;;;;;;;4.50;1.42;;;23.70;99.90;;;;;;5001113;28;20046;-74
2022/09/07 09:46:14;;;;;;;;;;;23.70;99.90;;;;;;4998859;28;20089;-75
2022/09/07 09:48:40;;;;;;;8.27;1.90;;;23.70;99.90;;;;;;5008903;28;20004;-73
2022/09/07 09:51:07;;;;;;;5.57;1.40;;;23.80;99.90;;;;;;4997149;28;20022;-74
2022/09/07 09:53:39;;;;;;;6.35;1.63;;;23.80;99.90;;;;;;5011606;28;20080;-72
2022/09/07 09:56:05;;;;;;;;;;;23.80;99.90;;;;;;4998674;28;20069;-73
2022/09/07 09:58:36;;;;;;;4.68;1.13;;;23.80;99.90;;;;;;5006159;28;19995;-73
2022/09/07 10:01:07;;;;;;;3.92;1.10;;;23.90;99.90;;;;;;5000616;28;20072;-74
2022/09/07 10:03:33;;;;;;;3.13;1.10;;;23.90;99.90;;;;;;5009343;28;20034;-71
2022/09/07 10:06:03;;;;;;;2.75;1.73;;;23.90;99.90;;;;;;5004823;28;20171;-71
2022/09/07 10:08:31;;;;;;;3.03;1.38;;;24.00;99.90;;;;;;5012653;28;20144;-70
2022/09/07 10:11:08;;;;;;;4.63;1.70;;;24.00;99.90;;;;;;5007740;28;20072;-74
2022/09/07 10:13:40;;;;;;;2.58;1.40;;;24.00;99.90;;;;;;5007001;28;20030;-70
2022/09/07 10:16:08;;;;;;;4.75;1.48;;;24.10;99.90;;;;;;5006005;28;20104;-71
2022/09/07 10:18:53;;;;;;;5.65;2.00;;;24.10;99.90;;;;;;4999001;28;20483;-71
2022/09/07 10:21:29;;;;;;;6.05;2.20;;;24.20;99.90;;;;;;5009467;28;20041;-70
2022/09/07 10:24:03;;;;;;;3.53;1.70;;;24.30;99.90;;;;;;5011934;28;20041;-71
2022/09/07 10:26:37;;;;;;;4.53;1.40;;;24.30;99.90;;;;;;5007278;28;20018;-70
2022/09/07 10:29:19;;;;;;;3.15;1.50;;;24.40;99.90;;;;;;5011359;28;20081;-71
2022/09/07 10:32:06;;;;;;;4.18;1.48;;;24.30;99.90;;;;;;5012104;28;20029;-70
2022/09/07 10:34:49;;;;;;;4.13;1.25;;;24.40;99.90;;;;;;5012016;28;20100;-73
2022/09/07 10:37:27;;;;;;;5.40;1.60;;;24.40;99.90;;;;;;4999220;28;20502;-70
2022/09/07 10:40:02;;;;;;;6.43;1.40;;;24.50;99.90;;;;;;5007383;28;20036;-72
2022/09/07 10:42:32;;;;;;;4.63;1.42;;;24.60;99.90;;;;;;5013271;28;20030;-72
2022/09/07 10:45:23;;;;;;;3.05;1.27;;;24.70;99.90;;;;;;5012629;28;20083;-71
2022/09/07 10:48:06;;;;;;;4.85;1.13;;;24.60;99.90;;;;;;5005507;28;20045;-71
2022/09/07 10:50:43;;;;;;;4.63;1.20;;;24.70;99.90;;;;;;4998303;28;20553;-71
2022/09/07 10:53:23;;;;;;;3.33;1.38;;;24.70;99.90;;;;;;5003128;28;20502;-72
2022/09/07 10:56:23;;;;;;;8.30;1.30;;;24.70;99.90;;;;;;5005610;28;20490;-71
2022/09/07 10:58:54;;;;;;;6.22;1.50;;;24.80;99.90;;;;;;5012065;28;20029;-72
2022/09/07 11:01:44;;;;;;;4.50;1.20;;;24.90;99.90;;;;;;5005844;28;20045;-71
2022/09/07 11:04:31;;;;;;;4.20;1.33;;;24.90;99.60;;;;;;5010311;28;20486;-72
2022/09/07 11:07:16;;;;;;;2.85;1.10;;;25.00;99.90;;;;;;4998238;28;20026;-72
2022/09/07 11:09:58;;;;;;;5.80;1.48;;;25.00;99.50;;;;;;5010103;28;20383;-72
2022/09/07 11:12:32;;;;;;;2.42;1.27;;;25.10;99.00;;;;;;5009063;28;20037;-72
2022/09/07 11:15:22;;;;;;;5.20;1.15;;;25.10;99.30;;;;;;5013798;28;20108;-73
2022/09/07 11:18:22;;;;;;;47.70;29.33;;;25.20;99.20;;;;;;5008883;28;20066;-71
2022/09/07 11:20:55;;;;;;;7.28;3.83;;;25.10;99.50;;;;;;5008984;28;20176;-71
2022/09/07 11:23:42;;;;;;;4.30;1.80;;;25.10;99.20;;;;;;4999120;28;20076;-71
2022/09/07 11:26:35;;;;;;;5.28;1.90;;;25.20;97.80;;;;;;5000055;28;20026;-71
2022/09/07 11:29:01;;;;;;;3.80;1.25;;;25.20;96.70;;;;;;4997280;28;20029;-70
2022/09/07 11:31:32;;;;;;;1.80;1.10;;;25.30;96.70;;;;;;5006142;28;20106;-70
2022/09/07 11:34:03;;;;;;;4.70;1.52;;;25.40;96.80;;;;;;5004014;28;20443;-70
2022/09/07 11:36:39;;;;;;;2.67;0.98;;;25.50;97.00;;;;;;4997588;28;20026;-70
2022/09/07 11:39:15;;;;;;;5.35;1.00;;;25.60;96.90;;;;;;5008200;28;20058;-71
2022/09/07 11:41:59;;;;;;;2.92;1.10;;;25.70;97.00;;;;;;5011551;28;20113;-71
2022/09/07 11:44:34;;;;;;;4.07;1.08;;;25.70;96.00;;;;;;4998068;28;20081;-70
2022/09/07 11:47:13;;;;;;;3.28;1.30;;;25.90;95.80;;;;;;4996489;28;20026;-70
2022/09/07 11:49:38;;;;;;;3.17;1.20;;;25.90;95.80;;;;;;5011008;28;20049;-72
2022/09/07 11:52:09;;;;;;;3.75;1.10;;;25.80;95.00;;;;;;4993978;28;20038;-72
2022/09/07 11:54:35;;;;;;;;;;;25.90;94.90;;;;;;4991501;28;20067;-70
2022/09/07 11:57:19;;;;;;;2.70;0.95;;;26.00;94.50;;;;;;5005156;28;19952;-70
2022/09/07 12:00:12;;;;;;;1.85;1.15;;;26.10;93.40;;;;;;5012947;28;20022;-71
2022/09/07 12:02:47;;;;;;;2.65;0.93;;;26.10;93.30;;;;;;4996285;28;20037;-72
2022/09/07 12:05:22;;;;;;;4.68;1.17;;;26.20;92.90;;;;;;4996508;28;20034;-72
2022/09/07 12:07:57;;;;;;;25.58;5.70;;;26.40;92.80;;;;;;5000790;28;20125;-72
2022/09/07 12:10:34;;;;;;;8.55;2.65;;;26.60;92.40;;;;;;5005792;28;20101;-70
2022/09/07 12:13:27;;;;;;;12.60;3.35;;;26.70;91.90;;;;;;4994766;28;20026;-71
2022/09/07 12:16:07;;;;;;;3.97;1.67;;;26.80;91.30;;;;;;4999064;28;20076;-71
2022/09/07 12:18:51;;;;;;;5.53;1.35;;;27.10;91.50;;;;;;4990141;28;20129;-73
2022/09/07 12:21:38;;;;;;;1.90;0.90;;;27.20;90.40;;;;;;4979805;28;20537;-72
2022/09/07 12:24:04;;;;;;;1.70;1.10;;;27.40;89.40;;;;;;4997871;28;20037;-71
2022/09/07 12:26:33;;;;;;;1.92;0.77;;;27.50;89.90;;;;;;5006773;28;20046;-71
2022/09/07 12:28:59;;;;;;;2.67;0.98;;;27.60;89.10;;;;;;4995811;28;20026;-72
2022/09/07 12:31:45;;;;;;;3.20;0.80;;;27.50;90.00;;;;;;5010606;28;20041;-71
2022/09/07 12:34:32;;;;;;;5.55;1.48;;;27.30;89.10;;;;;;4997427;28;20030;-73
2022/09/07 12:37:26;;;;;;;3.28;1.20;;;27.40;89.90;;;;;;5011205;28;20451;-71
2022/09/07 12:40:29;;;;;;;3.42;0.88;;;27.40;89.70;;;;;;5006100;28;20018;-71
2022/09/07 12:43:13;;;;;;;5.63;0.85;;;27.60;85.60;;;;;;5009028;28;20117;-71
2022/09/07 12:45:38;;;;;;;4.00;0.85;;;28.00;85.00;;;;;;5001964;28;20061;-71
2022/09/07 12:48:10;;;;;;;1.85;0.63;;;28.00;84.10;;;;;;4998880;28;20432;-69
2022/09/07 12:51:01;;;;;;;4.78;0.80;;;28.00;84.10;;;;;;5007373;28;20037;-70
2022/09/07 12:53:31;;;;;;;;;;;27.90;81.00;;;;;;4990875;28;20470;-70
2022/09/07 12:56:48;;;;;;;1.75;0.63;;;28.20;80.60;;;;;;5002437;28;19905;-71
2022/09/07 12:59:39;;;;;;;4.05;1.20;;;28.50;81.30;;;;;;4979082;28;20042;-74
2022/09/07 13:02:42;;;;;;;2.10;0.70;;;29.00;78.70;;;;;;5003695;28;20034;-71
2022/09/07 13:05:23;;;;;;;1.30;0.70;;;29.30;74.00;;;;;;4996069;28;20058;-71
2022/09/07 13:08:12;;;;;;;4.22;1.00;;;29.50;74.30;;;;;;5000768;28;20539;-71
2022/09/07 13:10:42;;;;;;;3.25;0.88;;;29.70;72.70;;;;;;5008848;28;20029;-70
2022/09/07 13:13:14;;;;;;;3.97;0.75;;;30.10;73.40;;;;;;5006826;28;20077;-70